Terminal Aerodrome Forecast
Issued by NWS

Home | Current Version | Previous Version | Text Only | Print | Product List | Glossary On
Versions: 1 2 3 4 5 6 7 8 9 10 11 12 13 14
000
FTUS43 KAPX 211730
TAFPLN
TAF
KPLN 211730Z 2118/2218 26007KT P6SM SCT035 BKN150
     FM220300 VRB03KT P6SM VCSH BKN080
     FM220600 00000KT 4SM -SHRA BR OVC060
     FM220900 23005KT 5SM -SHRA BR OVC012
     FM221200 29007KT P6SM OVC012
     FM221600 31011G20KT P6SM BKN040=

USA.gov is the U.S. government's official web portal to all federal, state and local government web resources and services.